createdAt,value
2022-09-12T00:01:15.661Z,19.75
2022-09-12T00:03:43.238Z,19.42
2022-09-12T00:06:11.631Z,20.95
2022-09-12T00:08:38.698Z,19.98
2022-09-12T00:11:08.677Z,19.83
2022-09-12T00:13:41.357Z,21.55
2022-09-12T00:16:19.102Z,20.90
2022-09-12T00:18:47.151Z,21.00
2022-09-12T00:21:15.717Z,20.23
2022-09-12T00:23:42.948Z,20.55
2022-09-12T00:26:10.311Z,19.70
2022-09-12T00:28:39.033Z,21.55
2022-09-12T00:31:08.954Z,21.75
2022-09-12T00:33:36.675Z,20.83
2022-09-12T00:36:14.242Z,22.63
2022-09-12T00:38:42.252Z,20.98
2022-09-12T00:41:20.114Z,20.95
2022-09-12T00:43:52.965Z,21.50
2022-09-12T00:46:43.971Z,22.02
2022-09-12T00:49:37.818Z,23.13
2022-09-12T00:52:15.911Z,22.15
2022-09-12T00:54:58.625Z,23.63
2022-09-12T00:57:31.220Z,22.95
2022-09-12T01:00:07.420Z,21.35
2022-09-12T01:02:35.785Z,23.85
2022-09-12T01:05:03.388Z,21.90
2022-09-12T01:07:31.454Z,23.15
2022-09-12T01:09:58.541Z,22.38
2022-09-12T01:12:28.894Z,23.83
2022-09-12T01:14:55.759Z,22.77
2022-09-12T01:17:25.040Z,22.48
2022-09-12T01:20:04.503Z,24.83
2022-09-12T01:22:40.265Z,24.38
2022-09-12T01:25:36.455Z,22.42
2022-09-12T01:28:21.497Z,23.48
2022-09-12T01:31:22.772Z,22.40
2022-09-12T01:34:26.329Z,23.98
2022-09-12T01:36:59.967Z,22.40
2022-09-12T01:39:41.193Z,24.65
2022-09-12T01:42:45.502Z,23.30
2022-09-12T01:45:33.997Z,22.42
2022-09-12T01:48:13.597Z,22.25
2022-09-12T01:50:47.483Z,22.90
2022-09-12T01:53:20.701Z,20.67
2022-09-12T01:55:54.610Z,22.10
2022-09-12T01:58:29.191Z,21.92
2022-09-12T02:01:01.224Z,25.33
2022-09-12T02:03:35.019Z,20.83
2022-09-12T02:06:10.455Z,22.15
2022-09-12T02:08:54.593Z,22.48
2022-09-12T02:11:22.341Z,21.98
2022-09-12T02:14:10.818Z,22.75
2022-09-12T02:16:42.262Z,22.00
2022-09-12T02:19:21.459Z,23.02
2022-09-12T02:21:55.702Z,21.38
2022-09-12T02:24:25.804Z,23.00
2022-09-12T02:27:23.905Z,23.40
2022-09-12T02:29:51.528Z,21.45
2022-09-12T02:32:58.129Z,21.65
2022-09-12T02:35:51.681Z,22.65
2022-09-12T02:38:24.626Z,22.13
2022-09-12T02:40:52.135Z,26.00
2022-09-12T02:43:19.120Z,23.50
2022-09-12T02:45:46.149Z,23.17
2022-09-12T02:48:26.282Z,23.20
2022-09-12T02:50:54.107Z,22.83
2022-09-12T02:53:21.297Z,23.15
2022-09-12T02:55:48.279Z,23.25
2022-09-12T02:58:22.773Z,23.98
2022-09-12T03:01:05.205Z,22.15
2022-09-12T03:03:47.300Z,22.77
2022-09-12T03:06:45.147Z,21.48
2022-09-12T03:09:32.454Z,23.30
2022-09-12T03:12:15.735Z,22.48
2022-09-12T03:14:51.488Z,22.98
2022-09-12T03:17:48.962Z,22.65
2022-09-12T03:20:32.172Z,22.55
2022-09-12T03:23:05.760Z,21.75
2022-09-12T03:25:36.285Z,22.63
2022-09-12T03:28:09.289Z,23.02
2022-09-12T03:30:45.202Z,22.63
2022-09-12T03:33:20.273Z,22.08
2022-09-12T03:35:48.952Z,23.70
2022-09-12T03:38:16.472Z,22.58
2022-09-12T03:40:43.571Z,23.55
2022-09-12T03:43:11.234Z,22.00
2022-09-12T03:45:38.606Z,23.33
2022-09-12T03:48:06.312Z,23.98
2022-09-12T03:50:33.961Z,22.08
2022-09-12T03:53:01.225Z,21.88
2022-09-12T03:55:28.101Z,22.90
2022-09-12T03:57:55.994Z,23.10
2022-09-12T04:00:23.105Z,22.02
2022-09-12T04:02:54.087Z,22.45
2022-09-12T04:05:20.976Z,22.38
2022-09-12T04:07:48.083Z,23.55
2022-09-12T04:10:16.363Z,24.88
2022-09-12T04:12:43.560Z,23.25
2022-09-12T04:15:11.152Z,25.13
2022-09-12T04:17:38.098Z,23.90
2022-09-12T04:20:05.678Z,23.48
2022-09-12T04:22:33.318Z,25.13
2022-09-12T04:25:00.229Z,26.17
2022-09-12T04:27:27.140Z,26.10
2022-09-12T04:29:55.369Z,27.45
2022-09-12T04:32:22.688Z,25.00
2022-09-12T04:34:49.677Z,23.23
2022-09-12T04:37:17.003Z,25.70
2022-09-12T04:39:44.027Z,25.95
2022-09-12T04:42:10.997Z,24.98
2022-09-12T04:44:37.864Z,25.33
2022-09-12T04:47:04.816Z,25.98
2022-09-12T04:49:31.882Z,26.15
2022-09-12T04:51:59.429Z,28.83
2022-09-12T04:54:28.564Z,27.48
2022-09-12T04:56:55.454Z,26.95
2022-09-12T04:59:22.726Z,25.60
2022-09-12T05:01:49.918Z,27.60
2022-09-12T05:04:16.977Z,26.77
2022-09-12T05:06:44.331Z,27.15
2022-09-12T05:09:14.375Z,29.45
2022-09-12T05:14:32.443Z,32.10
2022-09-12T05:17:01.336Z,29.45
2022-09-12T05:19:30.314Z,29.67
2022-09-12T05:21:57.605Z,30.13
2022-09-12T05:24:24.874Z,30.83
2022-09-12T05:26:51.910Z,31.83
2022-09-12T05:29:19.056Z,29.52
2022-09-12T05:31:45.902Z,31.92
2022-09-12T05:34:13.002Z,33.03
2022-09-12T05:36:39.853Z,35.08
2022-09-12T05:39:07.101Z,37.38
2022-09-12T05:41:35.152Z,34.45
2022-09-12T05:44:04.575Z,31.92
2022-09-12T05:46:39.559Z,32.72
2022-09-12T05:49:11.573Z,35.40
2022-09-12T05:51:41.807Z,31.63
2022-09-12T05:54:10.929Z,41.17
2022-09-12T05:56:42.862Z,40.63
2022-09-12T05:59:20.825Z,33.90
2022-09-12T06:01:48.922Z,33.47
2022-09-12T06:04:16.610Z,34.38
2022-09-12T06:06:48.778Z,29.98
2022-09-12T06:09:17.279Z,31.02
2022-09-12T06:11:45.421Z,31.83
2022-09-12T06:14:16.215Z,30.90
2022-09-12T06:16:43.244Z,31.50
2022-09-12T06:19:18.875Z,39.45
2022-09-12T06:21:48.367Z,32.53
2022-09-12T06:24:17.566Z,31.52
2022-09-12T06:26:45.317Z,31.42
2022-09-12T06:29:12.535Z,33.65
2022-09-12T06:31:44.133Z,30.98
2022-09-12T06:34:14.046Z,32.92
2022-09-12T06:36:45.949Z,32.70
2022-09-12T06:39:18.483Z,32.65
2022-09-12T06:41:46.078Z,30.33
2022-09-12T06:44:19.368Z,31.38
2022-09-12T06:46:46.716Z,33.55
2022-09-12T06:49:14.209Z,35.50
2022-09-12T06:51:44.439Z,33.03
2022-09-12T06:54:16.838Z,33.78
2022-09-12T06:56:45.309Z,34.25
2022-09-12T06:59:12.552Z,35.45
2022-09-12T07:01:41.809Z,35.83
2022-09-12T07:04:09.495Z,31.55
2022-09-12T07:06:39.836Z,31.73
2022-09-12T07:09:10.683Z,34.92
2022-09-12T07:11:39.353Z,35.70
2022-09-12T07:14:08.620Z,35.15
2022-09-12T07:16:36.747Z,34.80
2022-09-12T07:19:05.457Z,34.55
2022-09-12T07:21:32.742Z,36.20
2022-09-12T07:23:59.664Z,36.28
2022-09-12T07:26:30.492Z,32.67
2022-09-12T07:29:13.172Z,35.75
2022-09-12T07:31:46.533Z,32.83
2022-09-12T07:34:13.938Z,35.38
2022-09-12T07:36:40.901Z,37.22
2022-09-12T07:39:07.751Z,33.03
2022-09-12T07:41:34.707Z,33.45
2022-09-12T07:44:03.286Z,36.42
2022-09-12T07:46:31.312Z,33.78
2022-09-12T07:48:59.705Z,35.42
2022-09-12T07:51:28.196Z,33.15
2022-09-12T07:53:56.483Z,31.75
2022-09-12T07:56:29.325Z,32.85
2022-09-12T07:58:57.600Z,33.45
2022-09-12T08:01:24.784Z,32.85
2022-09-12T08:03:58.192Z,31.25
2022-09-12T08:06:27.557Z,35.47
2022-09-12T08:08:55.792Z,33.28
2022-09-12T08:11:24.055Z,33.08
2022-09-12T08:13:55.223Z,34.55
2022-09-12T08:16:24.867Z,31.33
2022-09-12T08:18:52.213Z,34.00
2022-09-12T08:21:28.984Z,31.75
2022-09-12T08:24:01.445Z,31.33
2022-09-12T08:26:28.678Z,29.25
2022-09-12T08:28:55.785Z,30.08
2022-09-12T08:31:25.567Z,30.00
2022-09-12T08:33:55.186Z,27.80
2022-09-12T08:36:24.440Z,27.35
2022-09-12T08:38:59.880Z,25.80
2022-09-12T08:41:45.393Z,29.27
2022-09-12T08:44:27.376Z,27.20
2022-09-12T08:47:27.646Z,27.23
2022-09-12T08:50:09.742Z,27.70
2022-09-12T08:52:58.154Z,26.33
2022-09-12T08:55:38.396Z,27.63
2022-09-12T08:58:24.859Z,24.33
2022-09-12T09:00:54.495Z,21.98
2022-09-12T09:03:56.699Z,23.27
2022-09-12T09:06:23.488Z,22.25
2022-09-12T09:09:36.222Z,22.23
2022-09-12T09:12:18.169Z,21.15
2022-09-12T09:14:53.894Z,21.30
2022-09-12T09:17:46.547Z,21.55
2022-09-12T09:20:45.301Z,20.83
2022-09-12T09:23:33.788Z,18.90
2022-09-12T09:26:09.394Z,20.08
2022-09-12T09:28:45.130Z,18.77
2022-09-12T09:31:17.092Z,22.52
2022-09-12T09:33:46.460Z,21.52
2022-09-12T09:36:41.483Z,19.35
2022-09-12T09:39:35.550Z,18.63
2022-09-12T09:42:19.270Z,16.70
2022-09-12T09:44:49.139Z,19.23
2022-09-12T09:47:19.385Z,19.50
2022-09-12T09:49:47.254Z,15.93
2022-09-12T09:52:18.388Z,16.67
2022-09-12T09:54:45.274Z,16.02
2022-09-12T09:57:34.155Z,16.55
2022-09-12T10:00:27.695Z,18.55
2022-09-12T10:03:12.765Z,19.35
2022-09-12T10:05:51.854Z,19.40
2022-09-12T10:08:32.395Z,18.23
2022-09-12T10:11:02.404Z,23.02
2022-09-12T10:13:49.461Z,21.17
2022-09-12T10:16:31.613Z,20.65
2022-09-12T10:19:00.907Z,17.45
2022-09-12T10:21:35.199Z,18.23
2022-09-12T10:24:28.331Z,15.10
2022-09-12T10:26:58.674Z,16.10
2022-09-12T10:29:31.419Z,15.07
2022-09-12T10:32:02.179Z,16.88
2022-09-12T10:35:02.505Z,16.73
2022-09-12T10:37:33.727Z,15.60
2022-09-12T10:40:02.599Z,20.98
2022-09-12T10:45:29.619Z,16.65
2022-09-12T10:48:00.064Z,16.20
2022-09-12T10:50:49.989Z,16.63
2022-09-12T10:53:21.254Z,15.90
2022-09-12T10:56:09.179Z,14.70
2022-09-12T10:59:00.529Z,14.45
2022-09-12T11:01:36.376Z,13.93
2022-09-12T11:04:40.449Z,15.15
2022-09-12T11:07:46.419Z,14.35
2022-09-12T11:10:27.135Z,12.77
2022-09-12T11:13:30.070Z,13.98
2022-09-12T11:15:59.982Z,12.93
2022-09-12T11:18:43.565Z,13.75
2022-09-12T11:21:16.233Z,12.40
2022-09-12T11:24:08.143Z,12.40
2022-09-12T11:26:54.705Z,11.95
2022-09-12T11:29:48.884Z,10.57
2022-09-12T11:32:57.065Z,10.20
2022-09-12T11:35:29.536Z,10.30
2022-09-12T11:38:18.006Z,9.82
2022-09-12T11:40:54.371Z,9.43
2022-09-12T11:43:36.230Z,8.80
2022-09-12T11:46:28.238Z,10.32
2022-09-12T11:49:25.705Z,11.25
2022-09-12T11:52:15.588Z,9.43
2022-09-12T11:55:01.054Z,9.25
2022-09-12T11:57:49.585Z,9.77
2022-09-12T12:00:20.545Z,9.23
2022-09-12T12:03:09.427Z,11.00
2022-09-12T12:05:52.035Z,9.05
2022-09-12T12:08:20.675Z,8.75
2022-09-12T12:11:02.379Z,9.45
2022-09-12T12:16:04.580Z,8.65
2022-09-12T12:18:34.345Z,9.20
2022-09-12T12:21:20.512Z,9.77
2022-09-12T12:24:09.052Z,8.68
2022-09-12T12:26:38.950Z,7.70
2022-09-12T12:29:32.785Z,8.70
2022-09-12T12:31:59.603Z,8.30
2022-09-12T12:34:41.612Z,7.75
2022-09-12T12:37:20.974Z,8.48
2022-09-12T12:39:51.230Z,8.25
2022-09-12T12:42:36.399Z,8.40
2022-09-12T12:45:09.504Z,8.40
2022-09-12T12:47:36.364Z,10.35
2022-09-12T12:50:19.576Z,7.65
2022-09-12T12:52:46.660Z,8.88
2022-09-12T12:55:37.680Z,9.07
2022-09-12T12:58:07.731Z,8.02
2022-09-12T13:00:40.233Z,11.02
2022-09-12T13:03:07.146Z,7.60
2022-09-12T13:05:45.002Z,7.80
2022-09-12T13:08:17.994Z,7.82
2022-09-12T13:10:54.610Z,7.70
2022-09-12T13:13:30.671Z,9.30
2022-09-12T13:15:57.699Z,7.95
2022-09-12T13:18:27.847Z,8.70
2022-09-12T13:21:14.468Z,9.27
2022-09-12T13:23:42.346Z,7.97
2022-09-12T13:26:13.975Z,7.68
2022-09-12T13:28:40.852Z,8.20
2022-09-12T13:31:30.579Z,8.55
2022-09-12T13:34:02.300Z,7.72
2022-09-12T13:37:05.760Z,8.75
2022-09-12T13:39:55.472Z,10.30
2022-09-12T13:42:34.768Z,9.10
2022-09-12T13:45:10.855Z,7.97
2022-09-12T13:47:44.297Z,8.32
2022-09-12T13:50:21.253Z,8.40
2022-09-12T13:52:57.437Z,6.90
2022-09-12T13:55:47.586Z,7.30
2022-09-12T13:58:35.179Z,7.95
2022-09-12T14:01:10.943Z,9.68
2022-09-12T14:04:09.779Z,9.68
2022-09-12T14:06:51.465Z,7.40
2022-09-12T14:09:32.659Z,7.53
2022-09-12T14:11:59.814Z,7.20
2022-09-12T14:14:42.161Z,8.90
2022-09-12T14:17:18.947Z,8.95
2022-09-12T14:19:49.302Z,7.20
2022-09-12T14:22:18.999Z,7.43
2022-09-12T14:24:51.663Z,8.23
2022-09-12T14:27:35.954Z,7.05
2022-09-12T14:30:07.456Z,8.30
2022-09-12T14:32:35.071Z,8.48
2022-09-12T14:35:10.904Z,8.00
2022-09-12T14:37:41.498Z,8.90
2022-09-12T14:40:23.606Z,7.40
2022-09-12T14:42:53.052Z,7.70
2022-09-12T14:45:31.036Z,7.88
2022-09-12T14:47:58.917Z,7.15
2022-09-12T14:50:29.559Z,7.20
2022-09-12T14:53:19.032Z,8.55
2022-09-12T14:56:03.598Z,7.45
2022-09-12T14:58:30.803Z,7.28
2022-09-12T15:01:22.964Z,8.27
2022-09-12T15:03:57.041Z,7.18
2022-09-12T15:06:36.214Z,7.80
2022-09-12T15:09:12.390Z,9.13
2022-09-12T15:11:39.511Z,8.85
2022-09-12T15:14:14.248Z,8.85
2022-09-12T15:16:41.784Z,8.23
2022-09-12T15:19:08.667Z,9.65
2022-09-12T15:21:35.614Z,9.10
2022-09-12T15:24:02.792Z,7.78
2022-09-12T15:26:30.579Z,9.07
2022-09-12T15:28:58.044Z,9.10
2022-09-12T15:31:32.419Z,8.85
2022-09-12T15:34:01.101Z,8.43
2022-09-12T15:36:28.916Z,7.78
2022-09-12T15:38:56.388Z,7.03
2022-09-12T15:41:36.832Z,8.30
2022-09-12T15:44:11.280Z,8.15
2022-09-12T15:46:38.573Z,7.97
2022-09-12T15:49:07.021Z,10.07
2022-09-12T15:51:34.143Z,8.88
2022-09-12T15:54:03.739Z,7.10
2022-09-12T15:56:30.605Z,7.82
2022-09-12T15:58:59.839Z,6.95
2022-09-12T16:01:28.636Z,7.38
2022-09-12T16:03:55.913Z,6.90
2022-09-12T16:06:23.428Z,7.82
2022-09-12T16:08:53.328Z,8.50
2022-09-12T16:11:28.808Z,6.38
2022-09-12T16:14:04.565Z,9.13
2022-09-12T16:16:32.075Z,7.53
2022-09-12T16:18:59.012Z,7.28
2022-09-12T16:21:26.770Z,7.38
2022-09-12T16:23:53.628Z,7.72
2022-09-12T16:26:20.997Z,7.05
2022-09-12T16:28:48.000Z,7.57
2022-09-12T16:31:15.495Z,11.07
2022-09-12T16:33:42.771Z,9.38
2022-09-12T16:36:12.504Z,7.85
2022-09-12T16:38:57.788Z,7.97
2022-09-12T16:41:25.326Z,6.22
2022-09-12T16:43:52.334Z,6.50
2022-09-12T16:46:24.710Z,6.65
2022-09-12T16:48:54.143Z,7.93
2022-09-12T16:51:23.798Z,6.80
2022-09-12T16:53:51.030Z,6.65
2022-09-12T16:56:18.558Z,6.75
2022-09-12T16:58:45.927Z,6.85
2022-09-12T17:01:30.692Z,6.47
2022-09-12T17:03:58.750Z,7.20
2022-09-12T17:06:29.655Z,8.30
2022-09-12T17:09:03.525Z,7.05
2022-09-12T17:11:38.703Z,7.25
2022-09-12T17:14:07.545Z,7.57
2022-09-12T17:16:37.140Z,7.00
2022-09-12T17:19:05.115Z,11.75
2022-09-12T17:21:32.068Z,10.38
2022-09-12T17:23:59.293Z,8.10
2022-09-12T17:26:26.821Z,7.05
2022-09-12T17:28:53.773Z,8.80
2022-09-12T17:31:20.773Z,6.72
2022-09-12T17:33:47.909Z,7.03
2022-09-12T17:36:17.700Z,6.45
2022-09-12T17:38:46.002Z,6.97
2022-09-12T17:41:21.701Z,8.13
2022-09-12T17:43:51.037Z,8.43
2022-09-12T17:46:19.301Z,9.23
2022-09-12T17:48:54.699Z,7.00
2022-09-12T17:51:24.507Z,8.40
2022-09-12T17:54:27.737Z,7.13
2022-09-12T17:56:56.271Z,6.60
2022-09-12T17:59:24.814Z,7.57
2022-09-12T18:02:10.462Z,7.60
2022-09-12T18:04:37.442Z,7.57
2022-09-12T18:07:04.986Z,8.15
2022-09-12T18:09:32.076Z,8.05
2022-09-12T18:11:58.995Z,8.52
2022-09-12T18:14:29.134Z,7.70
2022-09-12T18:17:00.216Z,7.57
2022-09-12T18:19:28.236Z,7.13
2022-09-12T18:21:55.997Z,7.10
2022-09-12T18:24:23.028Z,7.88
2022-09-12T18:26:50.086Z,9.52
2022-09-12T18:29:17.588Z,8.15
2022-09-12T18:31:48.083Z,7.80
2022-09-12T18:34:16.770Z,10.45
2022-09-12T18:36:49.702Z,8.32
2022-09-12T18:39:17.872Z,8.45
2022-09-12T18:41:44.815Z,6.95
2022-09-12T18:44:12.519Z,7.90
2022-09-12T18:46:39.838Z,7.68
2022-09-12T18:49:07.792Z,7.97
2022-09-12T18:51:36.358Z,8.27
2022-09-12T18:54:11.639Z,7.85
2022-09-12T18:59:07.539Z,8.13
2022-09-12T19:01:37.422Z,8.40
2022-09-12T19:04:06.233Z,8.32
2022-09-12T19:06:35.945Z,7.10
2022-09-12T19:09:07.566Z,6.25
2022-09-12T19:11:37.186Z,8.02
2022-09-12T19:14:04.564Z,8.73
2022-09-12T19:16:31.918Z,6.30
2022-09-12T19:18:59.677Z,7.25
2022-09-12T19:21:28.934Z,7.30
2022-09-12T19:23:58.360Z,7.78
2022-09-12T19:26:25.852Z,6.90
2022-09-12T19:28:54.067Z,7.93
2022-09-12T19:31:21.793Z,8.82
2022-09-12T19:33:49.458Z,6.95
2022-09-12T19:39:08.467Z,8.63
2022-09-12T19:41:35.996Z,7.97
2022-09-12T19:44:03.959Z,7.65
2022-09-12T19:46:30.841Z,9.60
2022-09-12T19:48:57.663Z,9.50
2022-09-12T19:51:24.662Z,9.05
2022-09-12T19:53:54.643Z,8.20
2022-09-12T19:56:21.866Z,9.23
2022-09-12T19:58:55.302Z,7.45
2022-09-12T20:01:28.367Z,8.27
2022-09-12T20:03:56.532Z,8.13
2022-09-12T20:06:24.054Z,9.05
2022-09-12T20:08:50.925Z,7.40
2022-09-12T20:11:20.002Z,7.60
2022-09-12T20:13:46.991Z,8.27
2022-09-12T20:16:20.356Z,10.10
2022-09-12T20:18:49.466Z,7.20
2022-09-12T20:21:19.129Z,6.72
2022-09-12T20:23:46.478Z,6.90
2022-09-12T20:26:13.887Z,8.00
2022-09-12T20:28:42.041Z,8.70
2022-09-12T20:31:13.118Z,8.00
2022-09-12T20:33:40.577Z,8.05
2022-09-12T20:36:16.009Z,7.57
2022-09-12T20:38:48.750Z,8.00
2022-09-12T20:41:16.569Z,10.63
2022-09-12T20:43:43.455Z,7.40
2022-09-12T20:46:11.488Z,7.25
2022-09-12T20:48:39.713Z,6.75
2022-09-12T20:51:07.389Z,6.97
2022-09-12T20:53:35.580Z,6.82
2022-09-12T20:56:05.320Z,7.25
2022-09-12T20:58:32.930Z,7.35
2022-09-12T21:01:06.629Z,6.90
2022-09-12T21:03:40.277Z,8.48
2022-09-12T21:06:08.836Z,8.20
2022-09-12T21:08:36.667Z,7.45
2022-09-12T21:11:04.453Z,6.95
2022-09-12T21:13:31.454Z,8.15
2022-09-12T21:16:03.664Z,8.05
2022-09-12T21:18:31.943Z,7.43
2022-09-12T21:20:58.995Z,8.68
2022-09-12T21:23:27.219Z,6.93
2022-09-12T21:25:54.607Z,7.55
2022-09-12T21:28:21.761Z,7.60
2022-09-12T21:30:49.934Z,7.07
2022-09-12T21:33:18.320Z,8.15
2022-09-12T21:35:45.838Z,8.20
2022-09-12T21:38:12.847Z,7.70
2022-09-12T21:40:39.872Z,9.05
2022-09-12T21:43:11.853Z,8.55
2022-09-12T21:45:39.634Z,8.57
2022-09-12T21:48:06.900Z,7.47
2022-09-12T21:50:33.790Z,8.75
2022-09-12T21:53:00.757Z,7.97
2022-09-12T21:55:27.874Z,7.18
2022-09-12T21:57:55.328Z,7.97
2022-09-12T22:00:22.927Z,9.75
2022-09-12T22:02:49.767Z,9.27
2022-09-12T22:05:17.338Z,8.90
2022-09-12T22:07:44.858Z,9.88
2022-09-12T22:10:12.071Z,8.35
2022-09-12T22:12:42.854Z,8.50
2022-09-12T22:15:36.485Z,7.68
2022-09-12T22:18:08.157Z,8.50
2022-09-12T22:20:35.496Z,8.13
2022-09-12T22:23:24.563Z,8.05
2022-09-12T22:25:55.029Z,8.73
2022-09-12T22:28:22.570Z,8.82
2022-09-12T22:30:49.695Z,8.00
2022-09-12T22:33:16.803Z,8.75
2022-09-12T22:35:44.304Z,8.70
2022-09-12T22:38:11.117Z,10.07
2022-09-12T22:40:38.324Z,8.90
2022-09-12T22:43:05.249Z,9.05
2022-09-12T22:45:32.413Z,8.02
2022-09-12T22:48:00.932Z,7.72
2022-09-12T22:52:55.049Z,9.90
2022-09-12T22:55:21.892Z,7.82
2022-09-12T22:57:49.029Z,9.73
2022-09-12T23:00:16.045Z,8.15
2022-09-12T23:02:43.462Z,8.98
2022-09-12T23:05:10.311Z,9.63
2022-09-12T23:07:37.268Z,8.52
2022-09-12T23:10:04.343Z,9.15
2022-09-12T23:12:31.946Z,9.50
2022-09-12T23:14:58.830Z,9.35
2022-09-12T23:17:25.667Z,9.02
2022-09-12T23:19:52.578Z,9.30
2022-09-12T23:22:19.480Z,9.43
2022-09-12T23:24:46.452Z,10.55
2022-09-12T23:27:13.298Z,8.77
2022-09-12T23:29:40.350Z,8.38
2022-09-12T23:32:07.187Z,8.82
2022-09-12T23:34:34.087Z,8.85
2022-09-12T23:37:01.152Z,7.78
2022-09-12T23:39:27.996Z,9.13
2022-09-12T23:41:55.582Z,11.70
2022-09-12T23:44:22.505Z,8.82
2022-09-12T23:46:49.254Z,9.32
2022-09-12T23:49:16.105Z,8.20
2022-09-12T23:51:43.018Z,8.48
2022-09-12T23:54:09.887Z,10.90
2022-09-12T23:56:37.329Z,8.40
2022-09-12T23:59:05.094Z,10.65
